Viola, Arkansas
Current Conditions -  °F | °C
As of 12:53 AM on Friday 28 Nov 2014 (Local Time) from KBPK Reporting Station
Clear Clear  
Wind Chill: 27°   Ceiling: Unl
Heat Index: 32°   Visibility: 9mi
Dew Point: 24°   Wind: 5mph
Humidity: 73%   Direction: 130°SE
Pressure: 30.34"   Gusts: NA
Location:  36.4°N, 91.98°W
Report Text: KBPK 280653Z AUTO 13004KT 9SM CLR 00/M04 A3034 RMK AO2 SLP278 T00001044
Loading
Personal Weather Stations






























Interactive Weather Map New forecast layout! Learn more

10-Day Weather Forecast

Advertisements
Track Severe Weather on mobile